sensor_id;sensor_type;location;lat;lon;timestamp;P1;durP1;ratioP1;P2;durP2;ratioP2
18364;SDS011;9309;52.126;11.616;2023-10-19T00:02:44;15.63;;;7.30;;
18364;SDS011;9309;52.126;11.616;2023-10-19T00:05:11;10.47;;;7.27;;
18364;SDS011;9309;52.126;11.616;2023-10-19T00:07:41;17.63;;;8.47;;
18364;SDS011;9309;52.126;11.616;2023-10-19T00:10:08;16.40;;;7.70;;
18364;SDS011;9309;52.126;11.616;2023-10-19T00:12:34;13.13;;;7.57;;
18364;SDS011;9309;52.126;11.616;2023-10-19T00:15:02;11.37;;;7.13;;
18364;SDS011;9309;52.126;11.616;2023-10-19T00:17:29;12.60;;;7.07;;
18364;SDS011;9309;52.126;11.616;2023-10-19T00:19:57;11.90;;;7.20;;
18364;SDS011;9309;52.126;11.616;2023-10-19T00:22:46;12.67;;;7.03;;
18364;SDS011;9309;52.126;11.616;2023-10-19T00:25:13;13.40;;;7.30;;
18364;SDS011;9309;52.126;11.616;2023-10-19T00:27:40;13.13;;;7.73;;
18364;SDS011;9309;52.126;11.616;2023-10-19T00:30:09;13.87;;;7.53;;
18364;SDS011;9309;52.126;11.616;2023-10-19T00:32:37;17.73;;;7.73;;
18364;SDS011;9309;52.126;11.616;2023-10-19T00:35:05;15.77;;;7.53;;
18364;SDS011;9309;52.126;11.616;2023-10-19T00:37:53;10.27;;;6.67;;
18364;SDS011;9309;52.126;11.616;2023-10-19T00:40:23;16.73;;;7.37;;
18364;SDS011;9309;52.126;11.616;2023-10-19T00:43:02;14.70;;;7.53;;
18364;SDS011;9309;52.126;11.616;2023-10-19T00:45:32;12.63;;;6.80;;
18364;SDS011;9309;52.126;11.616;2023-10-19T00:48:05;13.20;;;7.50;;
18364;SDS011;9309;52.126;11.616;2023-10-19T00:50:36;16.27;;;7.83;;
18364;SDS011;9309;52.126;11.616;2023-10-19T00:53:05;12.83;;;7.20;;
18364;SDS011;9309;52.126;11.616;2023-10-19T00:55:34;14.43;;;7.70;;
18364;SDS011;9309;52.126;11.616;2023-10-19T00:58:02;14.87;;;7.80;;
18364;SDS011;9309;52.126;11.616;2023-10-19T01:00:34;14.00;;;7.03;;
18364;SDS011;9309;52.126;11.616;2023-10-19T01:03:09;13.37;;;7.10;;
18364;SDS011;9309;52.126;11.616;2023-10-19T01:05:42;12.73;;;6.67;;
18364;SDS011;9309;52.126;11.616;2023-10-19T01:08:14;12.93;;;7.53;;
18364;SDS011;9309;52.126;11.616;2023-10-19T01:10:49;19.00;;;7.43;;
18364;SDS011;9309;52.126;11.616;2023-10-19T01:13:18;9.73;;;6.80;;
18364;SDS011;9309;52.126;11.616;2023-10-19T01:15:52;11.23;;;6.37;;
18364;SDS011;9309;52.126;11.616;2023-10-19T01:18:19;11.67;;;7.00;;
18364;SDS011;9309;52.126;11.616;2023-10-19T01:20:47;15.03;;;7.57;;
18364;SDS011;9309;52.126;11.616;2023-10-19T01:23:19;13.03;;;7.77;;
18364;SDS011;9309;52.126;11.616;2023-10-19T01:25:51;16.13;;;6.27;;
18364;SDS011;9309;52.126;11.616;2023-10-19T01:28:26;12.97;;;7.03;;
18364;SDS011;9309;52.126;11.616;2023-10-19T01:31:07;17.10;;;8.13;;
18364;SDS011;9309;52.126;11.616;2023-10-19T01:33:39;12.17;;;7.50;;
18364;SDS011;9309;52.126;11.616;2023-10-19T01:36:07;8.73;;;6.40;;
18364;SDS011;9309;52.126;11.616;2023-10-19T01:38:38;14.03;;;7.20;;
18364;SDS011;9309;52.126;11.616;2023-10-19T01:41:06;11.07;;;7.07;;
18364;SDS011;9309;52.126;11.616;2023-10-19T01:43:39;15.00;;;7.57;;
18364;SDS011;9309;52.126;11.616;2023-10-19T01:46:06;15.83;;;8.40;;
18364;SDS011;9309;52.126;11.616;2023-10-19T01:48:37;18.23;;;7.70;;
18364;SDS011;9309;52.126;11.616;2023-10-19T01:51:06;13.00;;;7.53;;
18364;SDS011;9309;52.126;11.616;2023-10-19T01:53:36;9.90;;;6.63;;
18364;SDS011;9309;52.126;11.616;2023-10-19T01:56:07;12.63;;;7.47;;
18364;SDS011;9309;52.126;11.616;2023-10-19T01:58:35;15.77;;;7.43;;
18364;SDS011;9309;52.126;11.616;2023-10-19T02:01:02;12.97;;;7.37;;
18364;SDS011;9309;52.126;11.616;2023-10-19T02:03:32;12.27;;;7.63;;
18364;SDS011;9309;52.126;11.616;2023-10-19T02:06:00;21.93;;;8.73;;
18364;SDS011;9309;52.126;11.616;2023-10-19T02:08:35;18.07;;;7.37;;
18364;SDS011;9309;52.126;11.616;2023-10-19T02:11:05;13.47;;;7.00;;
18364;SDS011;9309;52.126;11.616;2023-10-19T02:13:39;14.43;;;7.37;;
18364;SDS011;9309;52.126;11.616;2023-10-19T02:16:05;19.40;;;7.83;;
18364;SDS011;9309;52.126;11.616;2023-10-19T02:18:33;16.10;;;8.47;;
18364;SDS011;9309;52.126;11.616;2023-10-19T02:21:00;14.53;;;7.83;;
18364;SDS011;9309;52.126;11.616;2023-10-19T02:23:31;11.17;;;6.60;;
18364;SDS011;9309;52.126;11.616;2023-10-19T02:26:00;13.90;;;7.97;;
18364;SDS011;9309;52.126;11.616;2023-10-19T02:28:30;14.20;;;7.93;;
18364;SDS011;9309;52.126;11.616;2023-10-19T02:30:57;15.03;;;8.33;;
18364;SDS011;9309;52.126;11.616;2023-10-19T02:33:36;14.37;;;7.67;;
18364;SDS011;9309;52.126;11.616;2023-10-19T02:36:03;16.63;;;7.73;;
18364;SDS011;9309;52.126;11.616;2023-10-19T02:38:38;13.27;;;7.77;;
18364;SDS011;9309;52.126;11.616;2023-10-19T02:41:05;15.83;;;7.63;;
18364;SDS011;9309;52.126;11.616;2023-10-19T02:43:34;14.30;;;7.40;;
18364;SDS011;9309;52.126;11.616;2023-10-19T02:46:00;15.53;;;7.37;;
18364;SDS011;9309;52.126;11.616;2023-10-19T02:48:28;16.57;;;8.00;;
18364;SDS011;9309;52.126;11.616;2023-10-19T02:50:54;13.83;;;7.47;;
18364;SDS011;9309;52.126;11.616;2023-10-19T02:53:23;14.77;;;7.67;;
18364;SDS011;9309;52.126;11.616;2023-10-19T02:55:49;14.73;;;8.03;;
18364;SDS011;9309;52.126;11.616;2023-10-19T02:58:18;13.80;;;7.83;;
18364;SDS011;9309;52.126;11.616;2023-10-19T03:00:44;16.40;;;6.97;;
18364;SDS011;9309;52.126;11.616;2023-10-19T03:03:11;16.90;;;8.27;;
18364;SDS011;9309;52.126;11.616;2023-10-19T03:05:37;14.53;;;7.50;;
18364;SDS011;9309;52.126;11.616;2023-10-19T03:08:06;12.00;;;7.57;;
18364;SDS011;9309;52.126;11.616;2023-10-19T03:10:32;17.07;;;8.17;;
18364;SDS011;9309;52.126;11.616;2023-10-19T03:13:07;14.67;;;7.63;;
18364;SDS011;9309;52.126;11.616;2023-10-19T03:15:34;18.17;;;8.67;;
18364;SDS011;9309;52.126;11.616;2023-10-19T03:18:05;17.07;;;8.07;;
18364;SDS011;9309;52.126;11.616;2023-10-19T03:20:30;12.23;;;8.53;;
18364;SDS011;9309;52.126;11.616;2023-10-19T03:22:58;15.67;;;7.87;;
18364;SDS011;9309;52.126;11.616;2023-10-19T03:25:27;11.07;;;6.67;;
18364;SDS011;9309;52.126;11.616;2023-10-19T03:28:12;14.00;;;7.33;;
18364;SDS011;9309;52.126;11.616;2023-10-19T03:30:43;16.43;;;7.70;;
18364;SDS011;9309;52.126;11.616;2023-10-19T03:33:09;14.27;;;7.63;;
18364;SDS011;9309;52.126;11.616;2023-10-19T03:35:37;15.23;;;7.63;;
18364;SDS011;9309;52.126;11.616;2023-10-19T03:38:06;11.73;;;7.93;;
18364;SDS011;9309;52.126;11.616;2023-10-19T03:40:41;14.20;;;8.37;;
18364;SDS011;9309;52.126;11.616;2023-10-19T03:43:11;13.43;;;8.40;;
18364;SDS011;9309;52.126;11.616;2023-10-19T03:45:44;15.07;;;7.90;;
18364;SDS011;9309;52.126;11.616;2023-10-19T03:48:17;14.27;;;7.37;;
18364;SDS011;9309;52.126;11.616;2023-10-19T03:50:49;21.50;;;8.03;;
18364;SDS011;9309;52.126;11.616;2023-10-19T03:53:18;17.43;;;8.47;;
18364;SDS011;9309;52.126;11.616;2023-10-19T03:55:46;19.93;;;7.97;;
18364;SDS011;9309;52.126;11.616;2023-10-19T03:58:15;14.53;;;7.43;;
18364;SDS011;9309;52.126;11.616;2023-10-19T04:00:46;15.10;;;7.10;;
18364;SDS011;9309;52.126;11.616;2023-10-19T04:03:14;20.10;;;8.40;;
18364;SDS011;9309;52.126;11.616;2023-10-19T04:05:42;18.30;;;7.13;;
18364;SDS011;9309;52.126;11.616;2023-10-19T04:08:12;17.33;;;7.87;;
18364;SDS011;9309;52.126;11.616;2023-10-19T04:10:40;14.43;;;7.00;;
18364;SDS011;9309;52.126;11.616;2023-10-19T04:13:12;16.53;;;7.53;;
18364;SDS011;9309;52.126;11.616;2023-10-19T04:15:39;18.47;;;7.27;;
18364;SDS011;9309;52.126;11.616;2023-10-19T04:18:08;11.37;;;6.83;;
18364;SDS011;9309;52.126;11.616;2023-10-19T04:20:35;14.53;;;7.63;;
18364;SDS011;9309;52.126;11.616;2023-10-19T04:23:07;15.93;;;7.50;;
18364;SDS011;9309;52.126;11.616;2023-10-19T04:25:36;15.77;;;8.00;;
18364;SDS011;9309;52.126;11.616;2023-10-19T04:28:03;12.60;;;6.73;;
18364;SDS011;9309;52.126;11.616;2023-10-19T04:30:30;12.13;;;7.27;;
18364;SDS011;9309;52.126;11.616;2023-10-19T04:32:58;12.37;;;7.13;;
18364;SDS011;9309;52.126;11.616;2023-10-19T05:04:55;14.03;;;6.63;;
18364;SDS011;9309;52.126;11.616;2023-10-19T05:07:22;11.80;;;7.37;;
18364;SDS011;9309;52.126;11.616;2023-10-19T05:09:50;12.17;;;7.43;;
18364;SDS011;9309;52.126;11.616;2023-10-19T05:12:19;18.80;;;8.13;;
18364;SDS011;9309;52.126;11.616;2023-10-19T05:14:46;17.27;;;7.83;;
18364;SDS011;9309;52.126;11.616;2023-10-19T05:17:13;16.27;;;8.50;;
18364;SDS011;9309;52.126;11.616;2023-10-19T05:19:40;14.60;;;7.83;;
18364;SDS011;9309;52.126;11.616;2023-10-19T05:22:08;15.57;;;7.70;;
18364;SDS011;9309;52.126;11.616;2023-10-19T05:24:35;11.33;;;6.77;;
18364;SDS011;9309;52.126;11.616;2023-10-19T05:27:04;15.23;;;7.20;;
18364;SDS011;9309;52.126;11.616;2023-10-19T05:29:31;16.43;;;7.63;;
18364;SDS011;9309;52.126;11.616;2023-10-19T05:31:58;15.20;;;7.30;;
18364;SDS011;9309;52.126;11.616;2023-10-19T05:34:25;13.40;;;7.53;;
18364;SDS011;9309;52.126;11.616;2023-10-19T05:36:54;14.37;;;7.53;;
18364;SDS011;9309;52.126;11.616;2023-10-19T05:39:23;13.60;;;7.53;;
18364;SDS011;9309;52.126;11.616;2023-10-19T05:41:52;14.00;;;7.47;;
18364;SDS011;9309;52.126;11.616;2023-10-19T05:44:21;13.73;;;7.67;;
18364;SDS011;9309;52.126;11.616;2023-10-19T05:46:50;15.57;;;7.57;;
18364;SDS011;9309;52.126;11.616;2023-10-19T05:49:17;15.57;;;8.33;;
18364;SDS011;9309;52.126;11.616;2023-10-19T05:51:44;15.03;;;7.13;;
18364;SDS011;9309;52.126;11.616;2023-10-19T05:54:11;13.77;;;7.20;;
18364;SDS011;9309;52.126;11.616;2023-10-19T05:56:38;14.73;;;8.37;;
18364;SDS011;9309;52.126;11.616;2023-10-19T05:59:05;16.00;;;7.87;;
18364;SDS011;9309;52.126;11.616;2023-10-19T06:01:33;15.50;;;8.40;;
18364;SDS011;9309;52.126;11.616;2023-10-19T06:04:00;17.57;;;8.53;;
18364;SDS011;9309;52.126;11.616;2023-10-19T06:06:27;16.27;;;7.80;;
18364;SDS011;9309;52.126;11.616;2023-10-19T06:08:54;14.37;;;8.07;;
18364;SDS011;9309;52.126;11.616;2023-10-19T06:11:21;15.70;;;8.10;;
18364;SDS011;9309;52.126;11.616;2023-10-19T06:23:37;14.60;;;7.73;;
18364;SDS011;9309;52.126;11.616;2023-10-19T06:26:08;18.07;;;8.57;;
18364;SDS011;9309;52.126;11.616;2023-10-19T06:28:36;14.57;;;9.30;;
18364;SDS011;9309;52.126;11.616;2023-10-19T06:31:05;23.13;;;8.60;;
18364;SDS011;9309;52.126;11.616;2023-10-19T06:33:32;15.53;;;8.03;;
18364;SDS011;9309;52.126;11.616;2023-10-19T06:36:00;12.20;;;7.80;;
18364;SDS011;9309;52.126;11.616;2023-10-19T06:38:29;12.90;;;7.87;;
18364;SDS011;9309;52.126;11.616;2023-10-19T06:40:56;14.57;;;8.87;;
18364;SDS011;9309;52.126;11.616;2023-10-19T06:43:23;16.17;;;7.67;;
18364;SDS011;9309;52.126;11.616;2023-10-19T06:45:53;19.20;;;8.83;;
18364;SDS011;9309;52.126;11.616;2023-10-19T06:48:21;21.03;;;8.33;;
18364;SDS011;9309;52.126;11.616;2023-10-19T06:50:47;16.43;;;7.63;;
18364;SDS011;9309;52.126;11.616;2023-10-19T06:53:16;15.40;;;7.53;;
18364;SDS011;9309;52.126;11.616;2023-10-19T06:55:43;18.20;;;8.23;;
18364;SDS011;9309;52.126;11.616;2023-10-19T06:58:10;18.97;;;8.97;;
18364;SDS011;9309;52.126;11.616;2023-10-19T07:00:37;15.60;;;7.97;;
18364;SDS011;9309;52.126;11.616;2023-10-19T07:03:07;16.47;;;8.10;;
18364;SDS011;9309;52.126;11.616;2023-10-19T07:05:34;20.77;;;8.53;;
18364;SDS011;9309;52.126;11.616;2023-10-19T07:08:01;18.63;;;8.63;;
18364;SDS011;9309;52.126;11.616;2023-10-19T07:10:29;15.90;;;7.40;;
18364;SDS011;9309;52.126;11.616;2023-10-19T07:12:57;15.90;;;8.73;;
18364;SDS011;9309;52.126;11.616;2023-10-19T07:15:24;15.97;;;8.77;;
18364;SDS011;9309;52.126;11.616;2023-10-19T07:17:52;20.67;;;8.40;;
18364;SDS011;9309;52.126;11.616;2023-10-19T07:20:20;19.97;;;9.10;;
18364;SDS011;9309;52.126;11.616;2023-10-19T07:22:54;16.67;;;8.10;;
18364;SDS011;9309;52.126;11.616;2023-10-19T07:25:22;27.27;;;9.70;;
18364;SDS011;9309;52.126;11.616;2023-10-19T07:27:52;20.03;;;9.40;;
18364;SDS011;9309;52.126;11.616;2023-10-19T07:30:19;16.00;;;7.87;;
18364;SDS011;9309;52.126;11.616;2023-10-19T07:32:48;13.73;;;8.73;;
18364;SDS011;9309;52.126;11.616;2023-10-19T07:35:19;15.00;;;8.87;;
18364;SDS011;9309;52.126;11.616;2023-10-19T07:37:47;19.80;;;8.93;;
18364;SDS011;9309;52.126;11.616;2023-10-19T07:40:15;16.73;;;8.80;;
18364;SDS011;9309;52.126;11.616;2023-10-19T07:42:43;18.03;;;9.17;;
18364;SDS011;9309;52.126;11.616;2023-10-19T07:45:11;18.27;;;9.37;;
18364;SDS011;9309;52.126;11.616;2023-10-19T07:47:38;16.17;;;8.10;;
18364;SDS011;9309;52.126;11.616;2023-10-19T07:50:06;18.53;;;9.20;;
18364;SDS011;9309;52.126;11.616;2023-10-19T07:52:37;19.40;;;8.83;;
18364;SDS011;9309;52.126;11.616;2023-10-19T07:55:04;19.57;;;10.23;;
18364;SDS011;9309;52.126;11.616;2023-10-19T07:57:32;15.57;;;9.20;;
18364;SDS011;9309;52.126;11.616;2023-10-19T08:00:00;16.50;;;8.73;;
18364;SDS011;9309;52.126;11.616;2023-10-19T08:02:31;18.20;;;9.97;;
18364;SDS011;9309;52.126;11.616;2023-10-19T08:04:59;12.90;;;8.63;;
18364;SDS011;9309;52.126;11.616;2023-10-19T08:07:26;19.50;;;9.60;;
18364;SDS011;9309;52.126;11.616;2023-10-19T08:09:53;20.20;;;9.90;;
18364;SDS011;9309;52.126;11.616;2023-10-19T08:12:23;17.23;;;8.77;;
18364;SDS011;9309;52.126;11.616;2023-10-19T08:14:51;18.50;;;9.90;;
18364;SDS011;9309;52.126;11.616;2023-10-19T08:17:18;20.87;;;10.67;;
18364;SDS011;9309;52.126;11.616;2023-10-19T08:19:46;19.40;;;9.83;;
18364;SDS011;9309;52.126;11.616;2023-10-19T08:22:13;20.77;;;9.83;;
18364;SDS011;9309;52.126;11.616;2023-10-19T08:24:42;15.53;;;9.30;;
18364;SDS011;9309;52.126;11.616;2023-10-19T08:27:11;20.57;;;10.07;;
18364;SDS011;9309;52.126;11.616;2023-10-19T08:29:38;16.70;;;8.67;;
18364;SDS011;9309;52.126;11.616;2023-10-19T08:32:05;22.03;;;10.30;;
18364;SDS011;9309;52.126;11.616;2023-10-19T08:34:33;21.40;;;10.77;;
18364;SDS011;9309;52.126;11.616;2023-10-19T08:37:02;19.23;;;9.93;;
18364;SDS011;9309;52.126;11.616;2023-10-19T08:39:30;18.13;;;9.90;;
18364;SDS011;9309;52.126;11.616;2023-10-19T08:42:01;22.87;;;11.27;;
18364;SDS011;9309;52.126;11.616;2023-10-19T08:44:29;23.73;;;10.43;;
18364;SDS011;9309;52.126;11.616;2023-10-19T08:46:56;18.63;;;9.63;;
18364;SDS011;9309;52.126;11.616;2023-10-19T08:49:24;24.23;;;10.73;;
18364;SDS011;9309;52.126;11.616;2023-10-19T11:01:01;18.87;;;9.93;;
18364;SDS011;9309;52.126;11.616;2023-10-19T11:48:19;17.67;;;8.97;;
18364;SDS011;9309;52.126;11.616;2023-10-19T11:50:47;16.20;;;8.70;;
18364;SDS011;9309;52.126;11.616;2023-10-19T11:53:14;17.27;;;8.50;;
18364;SDS011;9309;52.126;11.616;2023-10-19T11:55:40;15.63;;;8.53;;
18364;SDS011;9309;52.126;11.616;2023-10-19T11:58:09;14.60;;;7.93;;
18364;SDS011;9309;52.126;11.616;2023-10-19T12:00:39;18.87;;;9.23;;
18364;SDS011;9309;52.126;11.616;2023-10-19T12:03:08;15.03;;;8.47;;
18364;SDS011;9309;52.126;11.616;2023-10-19T12:05:35;15.93;;;8.63;;
18364;SDS011;9309;52.126;11.616;2023-10-19T12:08:03;16.03;;;8.67;;
18364;SDS011;9309;52.126;11.616;2023-10-19T12:10:31;17.30;;;8.77;;
18364;SDS011;9309;52.126;11.616;2023-10-19T12:13:00;16.80;;;8.73;;
18364;SDS011;9309;52.126;11.616;2023-10-19T12:15:31;15.80;;;8.90;;
18364;SDS011;9309;52.126;11.616;2023-10-19T12:17:58;15.97;;;8.80;;
18364;SDS011;9309;52.126;11.616;2023-10-19T12:20:26;14.57;;;8.60;;
18364;SDS011;9309;52.126;11.616;2023-10-19T12:22:55;15.07;;;8.17;;
18364;SDS011;9309;52.126;11.616;2023-10-19T12:25:23;18.03;;;8.27;;
18364;SDS011;9309;52.126;11.616;2023-10-19T12:27:54;16.10;;;8.40;;
18364;SDS011;9309;52.126;11.616;2023-10-19T12:30:22;19.00;;;9.77;;
18364;SDS011;9309;52.126;11.616;2023-10-19T12:32:52;17.83;;;8.57;;
18364;SDS011;9309;52.126;11.616;2023-10-19T12:35:20;17.43;;;9.37;;
18364;SDS011;9309;52.126;11.616;2023-10-19T12:40:21;16.33;;;9.60;;
18364;SDS011;9309;52.126;11.616;2023-10-19T12:42:56;15.07;;;8.93;;
18364;SDS011;9309;52.126;11.616;2023-10-19T12:45:25;18.80;;;9.30;;
18364;SDS011;9309;52.126;11.616;2023-10-19T12:47:53;15.17;;;8.80;;
18364;SDS011;9309;52.126;11.616;2023-10-19T12:50:21;20.33;;;9.37;;
18364;SDS011;9309;52.126;11.616;2023-10-19T12:52:48;17.20;;;10.30;;
18364;SDS011;9309;52.126;11.616;2023-10-19T12:55:15;19.73;;;9.50;;
18364;SDS011;9309;52.126;11.616;2023-10-19T12:57:43;21.20;;;10.40;;
18364;SDS011;9309;52.126;11.616;2023-10-19T13:00:10;18.33;;;10.20;;
18364;SDS011;9309;52.126;11.616;2023-10-19T13:02:51;26.83;;;10.77;;
18364;SDS011;9309;52.126;11.616;2023-10-19T13:05:26;21.20;;;10.07;;
18364;SDS011;9309;52.126;11.616;2023-10-19T13:07:53;19.27;;;9.90;;
18364;SDS011;9309;52.126;11.616;2023-10-19T13:10:23;23.53;;;10.17;;
18364;SDS011;9309;52.126;11.616;2023-10-19T13:12:57;21.43;;;10.23;;
18364;SDS011;9309;52.126;11.616;2023-10-19T13:15:28;25.93;;;9.63;;
18364;SDS011;9309;52.126;11.616;2023-10-19T13:17:56;20.87;;;10.70;;
18364;SDS011;9309;52.126;11.616;2023-10-19T13:20:24;22.93;;;10.17;;
18364;SDS011;9309;52.126;11.616;2023-10-19T13:22:53;22.53;;;10.50;;
18364;SDS011;9309;52.126;11.616;2023-10-19T13:25:22;22.57;;;11.57;;
18364;SDS011;9309;52.126;11.616;2023-10-19T13:28:05;25.33;;;10.77;;
18364;SDS011;9309;52.126;11.616;2023-10-19T13:30:36;25.47;;;10.63;;
18364;SDS011;9309;52.126;11.616;2023-10-19T13:33:04;29.20;;;12.13;;
18364;SDS011;9309;52.126;11.616;2023-10-19T13:35:32;25.13;;;10.90;;
18364;SDS011;9309;52.126;11.616;2023-10-19T13:37:59;30.17;;;11.90;;
18364;SDS011;9309;52.126;11.616;2023-10-19T13:40:26;29.17;;;12.60;;
18364;SDS011;9309;52.126;11.616;2023-10-19T13:42:55;26.30;;;11.77;;
18364;SDS011;9309;52.126;11.616;2023-10-19T13:45:22;37.67;;;13.23;;
18364;SDS011;9309;52.126;11.616;2023-10-19T13:47:49;29.67;;;12.10;;
18364;SDS011;9309;52.126;11.616;2023-10-19T13:50:19;29.13;;;12.90;;
18364;SDS011;9309;52.126;11.616;2023-10-19T13:52:49;28.67;;;11.60;;
18364;SDS011;9309;52.126;11.616;2023-10-19T13:55:17;40.73;;;14.43;;
18364;SDS011;9309;52.126;11.616;2023-10-19T13:57:45;34.37;;;12.57;;
18364;SDS011;9309;52.126;11.616;2023-10-19T14:00:12;36.53;;;13.60;;
18364;SDS011;9309;52.126;11.616;2023-10-19T14:02:44;34.83;;;12.23;;
18364;SDS011;9309;52.126;11.616;2023-10-19T14:05:12;32.83;;;12.67;;
18364;SDS011;9309;52.126;11.616;2023-10-19T14:07:40;37.23;;;14.60;;
18364;SDS011;9309;52.126;11.616;2023-10-19T14:10:10;36.00;;;13.10;;
18364;SDS011;9309;52.126;11.616;2023-10-19T14:12:38;38.87;;;13.33;;
18364;SDS011;9309;52.126;11.616;2023-10-19T14:15:08;39.53;;;13.87;;
18364;SDS011;9309;52.126;11.616;2023-10-19T14:17:39;40.93;;;13.33;;
18364;SDS011;9309;52.126;11.616;2023-10-19T14:20:07;34.03;;;12.50;;
18364;SDS011;9309;52.126;11.616;2023-10-19T14:22:37;35.00;;;14.20;;
18364;SDS011;9309;52.126;11.616;2023-10-19T14:25:06;35.43;;;12.43;;
18364;SDS011;9309;52.126;11.616;2023-10-19T14:27:38;41.13;;;14.77;;
18364;SDS011;9309;52.126;11.616;2023-10-19T16:42:45;39.20;;;13.23;;
18364;SDS011;9309;52.126;11.616;2023-10-19T16:45:13;36.37;;;11.87;;
18364;SDS011;9309;52.126;11.616;2023-10-19T16:47:40;40.57;;;12.70;;
18364;SDS011;9309;52.126;11.616;2023-10-19T16:50:08;40.53;;;13.30;;
18364;SDS011;9309;52.126;11.616;2023-10-19T16:52:39;38.70;;;13.70;;
18364;SDS011;9309;52.126;11.616;2023-10-19T16:55:07;43.73;;;14.60;;
18364;SDS011;9309;52.126;11.616;2023-10-19T16:57:35;41.37;;;13.73;;
18364;SDS011;9309;52.126;11.616;2023-10-19T17:00:02;41.53;;;13.87;;
18364;SDS011;9309;52.126;11.616;2023-10-19T17:02:30;31.07;;;11.87;;
18364;SDS011;9309;52.126;11.616;2023-10-19T17:04:57;39.90;;;13.13;;
18364;SDS011;9309;52.126;11.616;2023-10-19T17:07:25;48.37;;;13.37;;
18364;SDS011;9309;52.126;11.616;2023-10-19T17:09:52;35.80;;;12.33;;
18364;SDS011;9309;52.126;11.616;2023-10-19T17:12:20;35.33;;;12.13;;
18364;SDS011;9309;52.126;11.616;2023-10-19T17:14:47;36.87;;;13.17;;
18364;SDS011;9309;52.126;11.616;2023-10-19T17:17:14;40.60;;;13.80;;
18364;SDS011;9309;52.126;11.616;2023-10-19T17:19:42;35.43;;;14.10;;
18364;SDS011;9309;52.126;11.616;2023-10-19T17:22:10;34.23;;;11.67;;
18364;SDS011;9309;52.126;11.616;2023-10-19T17:24:37;38.70;;;11.83;;
18364;SDS011;9309;52.126;11.616;2023-10-19T17:27:04;32.87;;;11.20;;
18364;SDS011;9309;52.126;11.616;2023-10-19T17:29:32;30.53;;;11.17;;
18364;SDS011;9309;52.126;11.616;2023-10-19T17:31:59;39.57;;;13.87;;
18364;SDS011;9309;52.126;11.616;2023-10-19T17:34:26;40.97;;;13.80;;
18364;SDS011;9309;52.126;11.616;2023-10-19T17:36:54;27.67;;;11.57;;
18364;SDS011;9309;52.126;11.616;2023-10-19T17:39:21;31.90;;;12.43;;
18364;SDS011;9309;52.126;11.616;2023-10-19T17:41:48;36.37;;;12.43;;
18364;SDS011;9309;52.126;11.616;2023-10-19T17:44:15;34.47;;;10.97;;
18364;SDS011;9309;52.126;11.616;2023-10-19T17:46:43;28.77;;;11.70;;
18364;SDS011;9309;52.126;11.616;2023-10-19T17:49:10;32.10;;;11.37;;
18364;SDS011;9309;52.126;11.616;2023-10-19T17:51:37;35.60;;;12.40;;
18364;SDS011;9309;52.126;11.616;2023-10-19T17:54:06;27.10;;;11.63;;
18364;SDS011;9309;52.126;11.616;2023-10-19T17:56:34;28.70;;;11.40;;
18364;SDS011;9309;52.126;11.616;2023-10-19T17:59:01;29.30;;;12.40;;
18364;SDS011;9309;52.126;11.616;2023-10-19T18:01:28;26.70;;;10.13;;
18364;SDS011;9309;52.126;11.616;2023-10-19T18:03:55;27.53;;;12.07;;
18364;SDS011;9309;52.126;11.616;2023-10-19T18:06:22;33.03;;;10.63;;
18364;SDS011;9309;52.126;11.616;2023-10-19T18:08:50;27.60;;;12.17;;
18364;SDS011;9309;52.126;11.616;2023-10-19T18:11:18;38.37;;;11.77;;
18364;SDS011;9309;52.126;11.616;2023-10-19T18:13:44;30.50;;;10.30;;
18364;SDS011;9309;52.126;11.616;2023-10-19T18:16:12;31.37;;;10.63;;
18364;SDS011;9309;52.126;11.616;2023-10-19T18:18:40;35.43;;;11.33;;
18364;SDS011;9309;52.126;11.616;2023-10-19T18:21:12;30.10;;;10.07;;
18364;SDS011;9309;52.126;11.616;2023-10-19T18:23:39;32.40;;;11.20;;
18364;SDS011;9309;52.126;11.616;2023-10-19T18:26:07;23.63;;;10.30;;
18364;SDS011;9309;52.126;11.616;2023-10-19T18:28:36;31.13;;;11.07;;
18364;SDS011;9309;52.126;11.616;2023-10-19T18:31:07;26.77;;;10.20;;
18364;SDS011;9309;52.126;11.616;2023-10-19T18:33:33;27.60;;;10.80;;
18364;SDS011;9309;52.126;11.616;2023-10-19T18:36:01;23.50;;;9.67;;
18364;SDS011;9309;52.126;11.616;2023-10-19T18:38:31;32.53;;;10.80;;
18364;SDS011;9309;52.126;11.616;2023-10-19T18:40:59;22.77;;;9.00;;
18364;SDS011;9309;52.126;11.616;2023-10-19T18:43:27;20.67;;;10.17;;
18364;SDS011;9309;52.126;11.616;2023-10-19T18:45:56;24.10;;;10.30;;
18364;SDS011;9309;52.126;11.616;2023-10-19T18:48:23;21.43;;;10.17;;
18364;SDS011;9309;52.126;11.616;2023-10-19T18:50:57;27.10;;;10.57;;
18364;SDS011;9309;52.126;11.616;2023-10-19T18:53:24;23.83;;;10.70;;
18364;SDS011;9309;52.126;11.616;2023-10-19T18:55:51;26.93;;;10.70;;
18364;SDS011;9309;52.126;11.616;2023-10-19T18:58:18;24.30;;;10.33;;
18364;SDS011;9309;52.126;11.616;2023-10-19T19:00:50;27.47;;;10.80;;
18364;SDS011;9309;52.126;11.616;2023-10-19T19:03:19;24.10;;;11.03;;
18364;SDS011;9309;52.126;11.616;2023-10-19T19:05:47;24.43;;;9.87;;
18364;SDS011;9309;52.126;11.616;2023-10-19T19:08:14;22.27;;;10.63;;
18364;SDS011;9309;52.126;11.616;2023-10-19T19:10:41;24.37;;;9.87;;
18364;SDS011;9309;52.126;11.616;2023-10-19T19:13:08;24.53;;;10.73;;
18364;SDS011;9309;52.126;11.616;2023-10-19T19:15:36;23.60;;;10.37;;
18364;SDS011;9309;52.126;11.616;2023-10-19T19:18:03;23.53;;;10.30;;
18364;SDS011;9309;52.126;11.616;2023-10-19T19:20:32;22.67;;;10.40;;
18364;SDS011;9309;52.126;11.616;2023-10-19T19:22:59;23.70;;;10.87;;
18364;SDS011;9309;52.126;11.616;2023-10-19T19:25:25;26.10;;;10.90;;
18364;SDS011;9309;52.126;11.616;2023-10-19T19:27:52;27.43;;;10.77;;
18364;SDS011;9309;52.126;11.616;2023-10-19T19:30:20;30.57;;;12.50;;
18364;SDS011;9309;52.126;11.616;2023-10-19T19:32:47;34.77;;;11.90;;
18364;SDS011;9309;52.126;11.616;2023-10-19T19:37:42;22.37;;;10.50;;
18364;SDS011;9309;52.126;11.616;2023-10-19T19:40:10;21.77;;;10.43;;
18364;SDS011;9309;52.126;11.616;2023-10-19T19:42:38;24.47;;;10.43;;
18364;SDS011;9309;52.126;11.616;2023-10-19T19:45:08;22.13;;;9.70;;
18364;SDS011;9309;52.126;11.616;2023-10-19T19:47:37;25.67;;;9.50;;
18364;SDS011;9309;52.126;11.616;2023-10-19T19:50:04;29.10;;;11.23;;
18364;SDS011;9309;52.126;11.616;2023-10-19T19:52:32;19.93;;;9.17;;
18364;SDS011;9309;52.126;11.616;2023-10-19T19:55:04;27.53;;;10.13;;
18364;SDS011;9309;52.126;11.616;2023-10-19T19:57:33;19.57;;;9.67;;
18364;SDS011;9309;52.126;11.616;2023-10-19T20:00:00;22.73;;;10.70;;
18364;SDS011;9309;52.126;11.616;2023-10-19T20:02:37;22.07;;;9.87;;
18364;SDS011;9309;52.126;11.616;2023-10-19T20:05:04;22.50;;;9.43;;
18364;SDS011;9309;52.126;11.616;2023-10-19T20:07:33;22.37;;;10.40;;
18364;SDS011;9309;52.126;11.616;2023-10-19T20:10:04;25.30;;;9.63;;
18364;SDS011;9309;52.126;11.616;2023-10-19T20:12:33;25.13;;;10.30;;
18364;SDS011;9309;52.126;11.616;2023-10-19T20:15:00;20.33;;;9.27;;
18364;SDS011;9309;52.126;11.616;2023-10-19T20:17:27;24.27;;;10.20;;
18364;SDS011;9309;52.126;11.616;2023-10-19T20:19:53;21.20;;;9.23;;
18364;SDS011;9309;52.126;11.616;2023-10-19T20:22:20;24.37;;;9.73;;
18364;SDS011;9309;52.126;11.616;2023-10-19T20:24:47;21.90;;;9.63;;
18364;SDS011;9309;52.126;11.616;2023-10-19T20:27:15;21.70;;;9.57;;
18364;SDS011;9309;52.126;11.616;2023-10-19T20:29:42;18.13;;;8.60;;
18364;SDS011;9309;52.126;11.616;2023-10-19T20:32:08;20.60;;;8.67;;